createdAt,value
2018-04-14T00:01:17.740Z,13.00
2018-04-14T00:03:45.316Z,13.00
2018-04-14T00:06:12.872Z,13.00
2018-04-14T00:08:40.434Z,13.00
2018-04-14T00:11:08.744Z,13.00
2018-04-14T00:13:36.315Z,12.90
2018-04-14T00:16:03.867Z,12.90
2018-04-14T00:18:32.210Z,12.90
2018-04-14T00:20:59.761Z,12.90
2018-04-14T00:23:27.330Z,12.90
2018-04-14T00:25:54.888Z,12.80
2018-04-14T00:28:22.453Z,12.80
2018-04-14T00:30:49.999Z,12.80
2018-04-14T00:33:17.600Z,12.80
2018-04-14T00:35:45.150Z,12.80
2018-04-14T00:38:13.475Z,12.70
2018-04-14T00:40:41.023Z,12.70
2018-04-14T00:43:09.355Z,12.60
2018-04-14T00:45:37.667Z,12.60
2018-04-14T00:48:05.219Z,12.60
2018-04-14T00:50:32.778Z,12.60
2018-04-14T00:53:12.192Z,12.50
2018-04-14T00:55:40.503Z,12.50
2018-04-14T00:58:08.052Z,12.50
2018-04-14T01:00:36.467Z,12.50
2018-04-14T01:03:04.026Z,12.50
2018-04-14T01:05:31.586Z,12.50
2018-04-14T01:07:59.903Z,12.30
2018-04-14T01:10:27.476Z,12.30
2018-04-14T01:12:55.028Z,12.30
2018-04-14T01:15:22.598Z,12.20
2018-04-14T01:17:50.920Z,12.10
2018-04-14T01:20:18.491Z,12.10
2018-04-14T01:22:46.047Z,12.10
2018-04-14T01:25:13.631Z,12.10
2018-04-14T01:27:41.191Z,12.10
2018-04-14T01:30:08.766Z,12.00
2018-04-14T01:32:36.319Z,11.90
2018-04-14T01:35:03.895Z,11.80
2018-04-14T01:37:31.450Z,11.70
2018-04-14T01:39:59.850Z,11.50
2018-04-14T01:42:27.405Z,11.40
2018-04-14T01:44:55.732Z,11.20
2018-04-14T01:47:23.312Z,11.20
2018-04-14T01:49:50.859Z,11.20
2018-04-14T01:52:18.431Z,11.10
2018-04-14T01:54:45.990Z,11.10
2018-04-14T01:57:14.331Z,11.00
2018-04-14T01:59:41.884Z,11.00
2018-04-14T02:02:09.459Z,11.10
2018-04-14T02:04:37.007Z,11.00
2018-04-14T02:07:04.580Z,11.00
2018-04-14T02:09:32.140Z,11.00
2018-04-14T02:12:00.483Z,11.00
2018-04-14T02:14:28.047Z,11.00
2018-04-14T02:16:55.621Z,11.00
2018-04-14T02:19:23.175Z,11.00
2018-04-14T02:21:50.756Z,11.00
2018-04-14T02:24:18.310Z,11.00
2018-04-14T02:26:45.884Z,11.00
2018-04-14T02:29:13.439Z,10.90
2018-04-14T02:31:41.019Z,10.90
2018-04-14T02:34:08.578Z,10.90
2018-04-14T02:36:36.165Z,10.90
2018-04-14T02:39:03.728Z,10.90
2018-04-14T02:41:31.304Z,10.90
2018-04-14T02:43:58.881Z,10.90
2018-04-14T02:46:26.443Z,10.90
2018-04-14T02:48:54.028Z,10.90
2018-04-14T02:51:21.583Z,10.90
2018-04-14T02:53:49.924Z,10.90
2018-04-14T02:56:17.489Z,10.90
2018-04-14T02:58:45.827Z,10.90
2018-04-14T03:01:14.152Z,11.00
2018-04-14T03:03:41.728Z,10.90
2018-04-14T03:06:09.302Z,11.00
2018-04-14T03:08:36.881Z,11.00
2018-04-14T03:11:04.452Z,11.00
2018-04-14T03:13:32.031Z,10.90
2018-04-14T03:16:00.357Z,10.90
2018-04-14T03:18:28.695Z,10.90
2018-04-14T03:20:56.255Z,10.90
2018-04-14T03:23:23.822Z,10.90
2018-04-14T03:25:51.376Z,10.90
2018-04-14T03:28:19.715Z,10.90
2018-04-14T03:30:47.276Z,11.00
2018-04-14T03:33:14.854Z,10.90
2018-04-14T03:35:42.408Z,10.90
2018-04-14T03:38:10.004Z,10.90
2018-04-14T03:40:38.329Z,10.90
2018-04-14T03:43:06.643Z,10.90
2018-04-14T03:45:34.217Z,10.90
2018-04-14T03:48:01.776Z,10.90
2018-04-14T03:50:29.353Z,10.90
2018-04-14T03:52:56.916Z,10.90
2018-04-14T03:55:24.524Z,10.90
2018-04-14T03:57:52.082Z,10.90
2018-04-14T04:00:19.698Z,10.80
2018-04-14T04:02:48.004Z,10.80
2018-04-14T04:05:16.348Z,10.80
2018-04-14T04:07:43.911Z,10.80
2018-04-14T04:10:11.485Z,10.80
2018-04-14T04:12:39.044Z,10.80
2018-04-14T04:15:06.616Z,10.80
2018-04-14T04:17:34.181Z,10.80
2018-04-14T04:20:13.630Z,10.80
2018-04-14T04:22:52.947Z,10.80
2018-04-14T04:25:24.332Z,10.70
2018-04-14T04:27:52.648Z,10.70
2018-04-14T04:30:20.237Z,10.70
2018-04-14T04:32:47.796Z,10.70
2018-04-14T04:35:15.356Z,10.70
2018-04-14T04:37:42.928Z,10.70
2018-04-14T04:40:10.483Z,10.70
2018-04-14T04:42:38.058Z,10.70
2018-04-14T04:45:05.616Z,10.70
2018-04-14T04:47:33.991Z,10.70
2018-04-14T04:50:01.543Z,10.70
2018-04-14T04:52:29.116Z,10.70
2018-04-14T04:54:56.671Z,10.70
2018-04-14T04:57:24.242Z,10.80
2018-04-14T04:59:51.811Z,10.80
2018-04-14T05:02:19.391Z,10.80
2018-04-14T05:04:46.951Z,10.80
2018-04-14T05:07:14.531Z,10.80
2018-04-14T05:09:42.088Z,10.80
2018-04-14T05:12:09.659Z,10.80
2018-04-14T05:14:37.219Z,10.80
2018-04-14T05:17:04.787Z,10.80
2018-04-14T05:19:32.352Z,10.80
2018-04-14T05:21:59.924Z,10.80
2018-04-14T05:24:27.484Z,10.90
2018-04-14T05:26:55.836Z,10.80
2018-04-14T05:29:23.401Z,10.80
2018-04-14T05:31:50.983Z,10.80
2018-04-14T05:34:18.574Z,10.80
2018-04-14T05:36:46.169Z,10.80
2018-04-14T05:39:14.489Z,10.70
2018-04-14T05:41:42.048Z,10.70
2018-04-14T05:44:09.633Z,10.70
2018-04-14T05:46:37.185Z,10.70
2018-04-14T05:49:04.756Z,10.70
2018-04-14T05:51:32.318Z,10.70
2018-04-14T05:54:00.655Z,10.70
2018-04-14T05:56:28.979Z,10.70
2018-04-14T05:58:57.319Z,10.70
2018-04-14T06:01:24.876Z,10.70
2018-04-14T06:03:52.451Z,10.70
2018-04-14T06:06:20.004Z,10.80
2018-04-14T06:08:47.588Z,10.80
2018-04-14T06:11:15.139Z,10.80
2018-04-14T06:13:43.491Z,10.80
2018-04-14T06:16:11.055Z,10.80
2018-04-14T06:18:38.629Z,10.80
2018-04-14T06:21:06.198Z,10.80
2018-04-14T06:23:33.780Z,10.80
2018-04-14T06:26:01.340Z,10.80
2018-04-14T06:28:28.935Z,10.70
2018-04-14T06:30:56.483Z,10.70
2018-04-14T06:33:24.062Z,10.70
2018-04-14T06:35:52.379Z,10.70
2018-04-14T06:38:20.717Z,10.60
2018-04-14T06:40:48.292Z,10.60
2018-04-14T06:43:15.864Z,10.60
2018-04-14T06:45:43.423Z,10.60
2018-04-14T06:48:10.975Z,10.50
2018-04-14T06:50:38.548Z,10.50
2018-04-14T06:53:06.108Z,10.50
2018-04-14T06:55:34.449Z,10.50
2018-04-14T06:58:02.008Z,10.40
2018-04-14T07:00:29.582Z,10.50
2018-04-14T07:02:57.140Z,10.40
2018-04-14T07:05:24.721Z,10.40
2018-04-14T07:07:52.279Z,10.50
2018-04-14T07:10:19.859Z,10.50
2018-04-14T07:12:47.419Z,10.50
2018-04-14T07:15:15.004Z,10.50
2018-04-14T07:17:42.567Z,10.50
2018-04-14T07:20:10.140Z,10.50
2018-04-14T07:22:37.696Z,10.50
2018-04-14T07:25:05.272Z,10.50
2018-04-14T07:27:32.830Z,10.50
2018-04-14T07:30:01.172Z,10.50
2018-04-14T07:32:28.784Z,10.50
2018-04-14T07:34:57.170Z,10.50
2018-04-14T07:37:25.505Z,10.50
2018-04-14T07:39:53.100Z,10.50
2018-04-14T07:42:21.130Z,10.50
2018-04-14T07:44:49.488Z,10.50
2018-04-14T07:47:17.044Z,10.50
2018-04-14T07:49:44.620Z,10.50
2018-04-14T07:52:12.196Z,10.50
2018-04-14T07:54:39.762Z,10.40
2018-04-14T07:57:07.337Z,10.40
2018-04-14T07:59:35.034Z,10.40
2018-04-14T08:02:03.407Z,10.40
2018-04-14T08:04:31.000Z,10.40
2018-04-14T08:07:00.091Z,10.40
2018-04-14T08:09:27.691Z,10.40
2018-04-14T08:11:56.067Z,10.50
2018-04-14T08:14:23.630Z,10.40
2018-04-14T08:16:51.991Z,10.60
2018-04-14T08:19:19.580Z,10.60
2018-04-14T08:21:47.169Z,10.70
2018-04-14T08:24:14.736Z,10.70
2018-04-14T08:26:42.308Z,10.70
2018-04-14T08:29:09.895Z,10.70
2018-04-14T08:31:38.251Z,10.80
2018-04-14T08:34:06.575Z,11.00
2018-04-14T08:36:34.925Z,11.00
2018-04-14T08:39:02.476Z,11.10
2018-04-14T08:41:30.097Z,11.10
2018-04-14T08:43:57.659Z,11.20
2018-04-14T08:46:25.232Z,11.20
2018-04-14T08:48:52.855Z,11.20
2018-04-14T08:51:20.420Z,11.20
2018-04-14T08:53:47.983Z,11.10
2018-04-14T08:56:15.634Z,11.10
2018-04-14T08:58:43.369Z,11.10
2018-04-14T09:01:10.940Z,11.20
2018-04-14T09:03:38.523Z,11.20
2018-04-14T09:06:06.081Z,11.20
2018-04-14T09:08:33.693Z,11.30
2018-04-14T09:11:01.256Z,11.40
2018-04-14T09:13:29.124Z,11.50
2018-04-14T09:15:56.693Z,11.50
2018-04-14T09:18:24.267Z,11.50
2018-04-14T09:20:51.818Z,11.50
2018-04-14T09:23:19.395Z,11.40
2018-04-14T09:25:46.953Z,11.40
2018-04-14T09:28:14.627Z,11.40
2018-04-14T09:30:42.248Z,11.40
2018-04-14T09:33:09.880Z,11.30
2018-04-14T09:35:37.460Z,11.30
2018-04-14T09:38:05.093Z,11.30
2018-04-14T09:40:33.558Z,11.20
2018-04-14T09:43:01.923Z,11.30
2018-04-14T09:45:29.480Z,11.30
2018-04-14T09:47:57.052Z,11.30
2018-04-14T09:50:24.619Z,11.40
2018-04-14T09:52:52.232Z,11.50
2018-04-14T09:55:20.043Z,11.60
2018-04-14T09:57:48.399Z,11.80
2018-04-14T10:00:21.662Z,11.70
2018-04-14T10:02:49.516Z,11.90
2018-04-14T10:05:17.833Z,12.10
2018-04-14T10:07:45.426Z,12.10
2018-04-14T10:10:13.022Z,12.20
2018-04-14T10:12:41.369Z,12.20
2018-04-14T10:15:09.072Z,12.20
2018-04-14T10:17:36.738Z,12.10
2018-04-14T10:20:04.329Z,12.20
2018-04-14T10:22:31.934Z,12.40
2018-04-14T10:25:00.411Z,12.70
2018-04-14T10:27:28.030Z,12.70
2018-04-14T10:29:55.689Z,12.80
2018-04-14T10:32:23.341Z,12.80
2018-04-14T10:34:50.933Z,12.80
2018-04-14T10:37:18.575Z,12.60
2018-04-14T10:39:46.164Z,12.60
2018-04-14T10:42:14.606Z,12.70
2018-04-14T10:44:42.203Z,12.60
2018-04-14T10:47:10.544Z,12.60
2018-04-14T10:49:38.187Z,12.60
2018-04-14T10:52:06.596Z,12.60
2018-04-14T10:54:34.289Z,12.60
2018-04-14T10:57:01.932Z,12.60
2018-04-14T10:59:30.311Z,12.70
2018-04-14T11:01:58.740Z,12.90
2018-04-14T11:04:26.388Z,12.90
2018-04-14T11:06:54.817Z,13.10
2018-04-14T11:09:22.643Z,13.10
2018-04-14T11:11:51.008Z,13.10
2018-04-14T11:14:18.620Z,13.10
2018-04-14T11:16:47.028Z,13.20
2018-04-14T11:19:17.551Z,13.20
2018-04-14T11:21:45.253Z,13.30
2018-04-14T11:24:12.825Z,13.40
2018-04-14T11:26:41.056Z,13.40
2018-04-14T11:29:08.645Z,13.40
2018-04-14T11:31:36.227Z,13.50
2018-04-14T11:34:04.594Z,13.70
2018-04-14T11:36:40.308Z,13.70
2018-04-14T11:39:07.984Z,13.80
2018-04-14T11:41:35.557Z,14.00
2018-04-14T11:44:03.115Z,14.00
2018-04-14T11:46:31.449Z,13.70
2018-04-14T11:48:59.009Z,13.70
2018-04-14T11:51:26.592Z,13.60
2018-04-14T11:53:54.165Z,13.50
2018-04-14T11:56:21.735Z,13.40
2018-04-14T11:58:49.294Z,13.20
2018-04-14T12:01:16.871Z,13.10
2018-04-14T12:03:44.490Z,13.10
2018-04-14T12:06:12.088Z,13.10
2018-04-14T12:08:39.652Z,13.10
2018-04-14T12:11:07.236Z,13.10
2018-04-14T12:13:34.787Z,13.10
2018-04-14T12:16:03.129Z,13.10
2018-04-14T12:18:30.691Z,13.10
2018-04-14T12:20:58.276Z,13.20
2018-04-14T12:23:25.831Z,13.20
2018-04-14T12:25:53.411Z,13.30
2018-04-14T12:28:20.961Z,13.50
2018-04-14T12:30:48.532Z,13.60
2018-04-14T12:33:16.090Z,13.70
2018-04-14T12:35:43.664Z,13.80
2018-04-14T12:38:11.227Z,14.00
2018-04-14T12:40:39.573Z,14.00
2018-04-14T12:43:07.132Z,13.90
2018-04-14T12:45:34.683Z,13.70
2018-04-14T12:48:02.261Z,13.60
2018-04-14T12:50:29.819Z,13.60
2018-04-14T12:52:57.427Z,13.60
2018-04-14T12:55:24.991Z,13.70
2018-04-14T12:57:52.571Z,13.80
2018-04-14T13:00:20.132Z,13.90
2018-04-14T13:02:47.717Z,13.90
2018-04-14T13:05:15.279Z,13.80
2018-04-14T13:07:42.862Z,13.70
2018-04-14T13:10:10.421Z,13.60
2018-04-14T13:12:38.000Z,13.50
2018-04-14T13:15:05.556Z,13.30
2018-04-14T13:17:33.142Z,13.30
2018-04-14T13:20:02.515Z,13.30
2018-04-14T13:22:34.122Z,13.30
2018-04-14T13:25:02.601Z,13.80
2018-04-14T13:27:30.203Z,13.80
2018-04-14T13:29:57.809Z,14.10
2018-04-14T13:32:26.192Z,14.00
2018-04-14T13:34:54.548Z,14.00
2018-04-14T13:37:22.131Z,14.00
2018-04-14T13:39:49.719Z,14.00
2018-04-14T13:42:17.302Z,13.90
2018-04-14T13:44:44.862Z,14.00
2018-04-14T13:47:12.482Z,14.00
2018-04-14T13:49:40.821Z,14.20
2018-04-14T13:52:09.175Z,14.30
2018-04-14T13:54:36.927Z,14.40
2018-04-14T13:57:04.543Z,14.40
2018-04-14T13:59:32.144Z,14.40
2018-04-14T14:01:59.704Z,14.20
2018-04-14T14:04:27.290Z,14.00
2018-04-14T14:06:54.884Z,13.80
2018-04-14T14:09:23.231Z,13.60
2018-04-14T14:11:50.834Z,13.60
2018-04-14T14:14:18.471Z,13.50
2018-04-14T14:16:46.032Z,13.40
2018-04-14T14:19:13.620Z,13.30
2018-04-14T14:21:41.187Z,13.20
2018-04-14T14:24:09.535Z,13.30
2018-04-14T14:26:37.855Z,13.30
2018-04-14T14:29:05.429Z,13.30
2018-04-14T14:31:33.019Z,13.40
2018-04-14T14:34:00.609Z,13.50
2018-04-14T14:36:28.170Z,13.50
2018-04-14T14:38:55.752Z,13.60
2018-04-14T14:41:23.336Z,13.70
2018-04-14T14:43:50.915Z,14.00
2018-04-14T14:46:19.252Z,15.10
2018-04-14T14:48:46.856Z,15.00
2018-04-14T14:51:14.419Z,15.40
2018-04-14T14:53:41.992Z,15.60
2018-04-14T14:56:09.556Z,15.70
2018-04-14T14:58:37.891Z,15.10
2018-04-14T15:01:06.219Z,15.10
2018-04-14T15:03:33.780Z,15.00
2018-04-14T15:06:01.351Z,14.80
2018-04-14T15:08:28.912Z,14.90
2018-04-14T15:10:56.484Z,15.00
2018-04-14T15:13:24.035Z,15.00
2018-04-14T15:15:52.372Z,15.00
2018-04-14T15:18:19.924Z,15.00
2018-04-14T15:20:47.507Z,15.00
2018-04-14T15:23:15.055Z,14.90
2018-04-14T15:25:42.691Z,15.00
2018-04-14T15:28:10.272Z,15.10
2018-04-14T15:30:37.855Z,15.30
2018-04-14T15:33:06.175Z,15.40
2018-04-14T15:35:34.516Z,15.40
2018-04-14T15:38:02.069Z,15.40
2018-04-14T15:40:30.412Z,15.10
2018-04-14T15:42:57.972Z,15.10
2018-04-14T15:45:26.314Z,15.00
2018-04-14T15:47:53.875Z,14.90
2018-04-14T15:50:21.459Z,14.90
2018-04-14T15:52:49.017Z,14.90
2018-04-14T15:55:16.598Z,14.90
2018-04-14T15:57:44.159Z,14.90
2018-04-14T16:00:11.728Z,14.90
2018-04-14T16:02:39.287Z,15.00
2018-04-14T16:05:06.886Z,14.90
2018-04-14T16:07:34.448Z,15.00
2018-04-14T16:10:02.048Z,14.80
2018-04-14T16:12:29.604Z,14.70
2018-04-14T16:14:57.942Z,14.60
2018-04-14T16:17:26.283Z,14.60
2018-04-14T16:19:53.856Z,14.60
2018-04-14T16:22:21.501Z,14.60
2018-04-14T16:24:49.716Z,14.60
2018-04-14T16:27:17.404Z,14.60
2018-04-14T16:29:44.960Z,14.70
2018-04-14T16:32:12.532Z,14.60
2018-04-14T16:34:40.084Z,14.40
2018-04-14T16:37:07.664Z,14.30
2018-04-14T16:39:35.229Z,14.20
2018-04-14T16:42:02.798Z,14.20
2018-04-14T16:44:30.354Z,14.20
2018-04-14T16:46:57.932Z,14.10
2018-04-14T16:49:25.538Z,14.00
2018-04-14T16:51:53.078Z,14.00
2018-04-14T16:54:20.635Z,13.90
2018-04-14T16:56:48.254Z,13.80
2018-04-14T16:59:15.816Z,13.70
2018-04-14T17:01:43.395Z,13.60
2018-04-14T17:04:10.948Z,13.60
2018-04-14T17:06:38.527Z,13.50
2018-04-14T17:09:06.075Z,13.50
2018-04-14T17:11:33.649Z,13.50
2018-04-14T17:14:01.198Z,13.50
2018-04-14T17:16:29.538Z,13.40
2018-04-14T17:18:57.091Z,13.40
2018-04-14T17:21:24.663Z,13.40
2018-04-14T17:23:52.220Z,13.20
2018-04-14T17:26:19.773Z,13.20
2018-04-14T17:28:48.112Z,13.00
2018-04-14T17:31:15.660Z,13.00
2018-04-14T17:33:43.236Z,12.90
2018-04-14T17:36:10.785Z,12.80
2018-04-14T17:38:39.128Z,12.60
2018-04-14T17:41:06.676Z,12.60
2018-04-14T17:43:34.244Z,12.60
2018-04-14T17:46:01.800Z,12.50
2018-04-14T17:48:29.369Z,12.40
2018-04-14T17:50:57.689Z,12.10
2018-04-14T17:53:25.474Z,12.10
2018-04-14T17:55:53.024Z,11.90
2018-04-14T17:58:20.597Z,11.70
2018-04-14T18:00:48.148Z,11.60
2018-04-14T18:03:15.715Z,11.40
2018-04-14T18:05:44.038Z,11.20
2018-04-14T18:08:11.608Z,11.20
2018-04-14T18:10:39.156Z,11.20
2018-04-14T18:13:07.493Z,11.00
2018-04-14T18:15:35.071Z,10.90
2018-04-14T18:18:02.791Z,10.80
2018-04-14T18:20:31.108Z,10.70
2018-04-14T18:22:58.682Z,10.60
2018-04-14T18:25:26.242Z,10.50
2018-04-14T18:27:53.819Z,10.50
2018-04-14T18:30:21.489Z,10.50
2018-04-14T18:32:49.067Z,10.30
2018-04-14T18:35:16.612Z,10.20
2018-04-14T18:37:44.187Z,10.00
2018-04-14T18:40:12.524Z,9.70
2018-04-14T18:42:40.077Z,9.70
2018-04-14T18:45:07.656Z,9.60
2018-04-14T18:47:35.208Z,9.40
2018-04-14T18:50:02.787Z,9.30
2018-04-14T18:52:30.340Z,9.20
2018-04-14T18:54:57.918Z,9.20
2018-04-14T18:57:25.464Z,9.10
2018-04-14T18:59:53.799Z,8.90
2018-04-14T19:02:21.363Z,8.90
2018-04-14T19:04:48.931Z,8.90
2018-04-14T19:07:16.480Z,8.80
2018-04-14T19:09:44.052Z,8.70
2018-04-14T19:12:12.377Z,8.50
2018-04-14T19:14:39.945Z,8.50
2018-04-14T19:17:07.487Z,8.50
2018-04-14T19:19:35.815Z,8.40
2018-04-14T19:22:03.367Z,8.40
2018-04-14T19:24:30.962Z,8.30
2018-04-14T19:26:58.572Z,8.30
2018-04-14T19:29:26.131Z,8.20
2018-04-14T19:31:53.700Z,8.10
2018-04-14T19:34:21.426Z,8.10
2018-04-14T19:36:49.242Z,8.00
2018-04-14T19:39:23.500Z,7.90
2018-04-14T19:41:51.702Z,7.90
2018-04-14T19:44:20.243Z,7.90
2018-04-14T19:46:48.643Z,7.90
2018-04-14T19:49:16.329Z,7.80
2018-04-14T19:51:44.796Z,7.80
2018-04-14T19:54:12.529Z,7.80
2018-04-14T19:56:40.342Z,7.80
2018-04-14T19:59:08.030Z,7.70
2018-04-14T20:01:35.666Z,7.70
2018-04-14T20:04:03.216Z,7.60
2018-04-14T20:06:31.554Z,7.50
2018-04-14T20:08:59.280Z,7.50
2018-04-14T20:11:27.783Z,7.40
2018-04-14T20:13:55.442Z,7.40
2018-04-14T20:16:23.790Z,7.50
2018-04-14T20:18:51.373Z,7.50
2018-04-14T20:21:18.931Z,7.60
2018-04-14T20:23:46.479Z,7.60
2018-04-14T20:26:14.039Z,7.60
2018-04-14T20:28:47.448Z,7.60
2018-04-14T20:31:15.020Z,7.60
2018-04-14T20:33:43.333Z,7.50
2018-04-14T20:36:10.926Z,7.40
2018-04-14T20:38:38.476Z,7.40
2018-04-14T20:41:06.075Z,7.40
2018-04-14T20:43:33.620Z,7.50
2018-04-14T20:46:01.169Z,7.50
2018-04-14T20:48:29.521Z,7.50
2018-04-14T20:50:57.067Z,7.50
2018-04-14T20:53:24.693Z,7.50
2018-04-14T20:55:53.039Z,7.50
2018-04-14T20:58:20.608Z,7.50
2018-04-14T21:00:48.152Z,7.60
2018-04-14T21:03:15.711Z,7.60
2018-04-14T21:05:44.018Z,7.70
2018-04-14T21:08:11.580Z,7.70
2018-04-14T21:10:39.127Z,7.70
2018-04-14T21:13:07.468Z,7.70
2018-04-14T21:15:35.012Z,7.70
2018-04-14T21:18:02.577Z,7.70
2018-04-14T21:20:30.125Z,7.70
2018-04-14T21:22:57.688Z,7.60
2018-04-14T21:25:25.267Z,7.50
2018-04-14T21:27:58.707Z,7.50
2018-04-14T21:30:27.512Z,7.50
2018-04-14T21:32:55.081Z,7.50
2018-04-14T21:35:22.631Z,7.50
2018-04-14T21:37:50.968Z,7.60
2018-04-14T21:40:18.704Z,7.50
2018-04-14T21:42:46.275Z,7.60
2018-04-14T21:45:14.599Z,7.50
2018-04-14T21:47:42.670Z,7.50
2018-04-14T21:50:10.212Z,7.40
2018-04-14T21:52:38.548Z,7.20
2018-04-14T21:55:06.089Z,7.20
2018-04-14T21:57:34.419Z,7.20
2018-04-14T22:00:01.997Z,7.20
2018-04-14T22:02:29.543Z,7.20
2018-04-14T22:04:57.174Z,7.20
2018-04-14T22:07:24.680Z,7.10
2018-04-14T22:09:52.249Z,7.00
2018-04-14T22:12:19.797Z,7.00
2018-04-14T22:14:48.132Z,6.90
2018-04-14T22:17:15.684Z,6.90
2018-04-14T22:19:43.253Z,6.90
2018-04-14T22:22:10.822Z,6.90
2018-04-14T22:24:38.392Z,6.80
2018-04-14T22:27:05.942Z,6.70
2018-04-14T22:29:38.222Z,6.70
2018-04-14T22:32:06.375Z,6.60
2018-04-14T22:34:38.851Z,6.70
2018-04-14T22:37:06.724Z,6.70
2018-04-14T22:39:38.011Z,6.60
2018-04-14T22:42:06.374Z,6.30
2018-04-14T22:44:33.942Z,6.30
2018-04-14T22:47:01.493Z,6.40
2018-04-14T22:49:29.066Z,6.40
2018-04-14T22:51:56.654Z,6.40
2018-04-14T22:54:24.236Z,6.50
2018-04-14T22:56:51.778Z,6.50
2018-04-14T22:59:19.358Z,6.50
2018-04-14T23:01:46.955Z,6.50
2018-04-14T23:04:14.520Z,6.50
2018-04-14T23:06:43.068Z,6.40
2018-04-14T23:09:16.921Z,6.40
2018-04-14T23:11:50.089Z,6.30
2018-04-14T23:14:18.745Z,6.30
2018-04-14T23:16:51.426Z,6.30
2018-04-14T23:19:19.751Z,6.30
2018-04-14T23:21:47.272Z,6.20
2018-04-14T23:24:14.855Z,6.00
2018-04-14T23:26:42.408Z,6.00
2018-04-14T23:29:09.985Z,6.00
2018-04-14T23:31:37.559Z,6.00
2018-04-14T23:34:05.112Z,6.00
2018-04-14T23:36:33.743Z,6.10
2018-04-14T23:39:01.336Z,6.00
2018-04-14T23:41:28.908Z,6.10
2018-04-14T23:43:56.465Z,6.10
2018-04-14T23:46:24.041Z,6.00
2018-04-14T23:48:51.583Z,6.00
2018-04-14T23:51:19.149Z,6.00
2018-04-14T23:53:46.708Z,6.00
2018-04-14T23:56:14.271Z,5.90
2018-04-14T23:58:42.588Z,5.90
